sensor_id;sensor_type;location;lat;lon;timestamp;temperature;humidity
57660;DHT22;43485;45.680;15.702;2023-12-20T00:00:36;-0.20;74.10
57660;DHT22;43485;45.680;15.702;2023-12-20T00:03:05;-0.20;73.60
57660;DHT22;43485;45.680;15.702;2023-12-20T00:05:31;-0.20;74.20
57660;DHT22;43485;45.680;15.702;2023-12-20T00:07:58;-0.20;74.20
57660;DHT22;43485;45.680;15.702;2023-12-20T00:10:24;-0.30;74.20
57660;DHT22;43485;45.680;15.702;2023-12-20T00:12:50;-0.30;74.30
57660;DHT22;43485;45.680;15.702;2023-12-20T00:15:16;-0.30;74.20
57660;DHT22;43485;45.680;15.702;2023-12-20T00:17:42;-0.30;74.30
57660;DHT22;43485;45.680;15.702;2023-12-20T00:20:08;-0.30;74.20
57660;DHT22;43485;45.680;15.702;2023-12-20T00:22:34;-0.40;73.90
57660;DHT22;43485;45.680;15.702;2023-12-20T00:25:00;-0.40;74.10
57660;DHT22;43485;45.680;15.702;2023-12-20T00:27:26;-0.40;74.10
57660;DHT22;43485;45.680;15.702;2023-12-20T00:29:52;-0.40;74.00
57660;DHT22;43485;45.680;15.702;2023-12-20T00:32:18;-0.40;74.10
57660;DHT22;43485;45.680;15.702;2023-12-20T00:34:45;-0.40;74.10
57660;DHT22;43485;45.680;15.702;2023-12-20T00:37:11;-0.40;73.90
57660;DHT22;43485;45.680;15.702;2023-12-20T00:39:37;-0.40;73.80
57660;DHT22;43485;45.680;15.702;2023-12-20T00:42:03;-0.40;73.60
57660;DHT22;43485;45.680;15.702;2023-12-20T00:44:29;-0.30;73.50
57660;DHT22;43485;45.680;15.702;2023-12-20T00:46:55;-0.30;73.40
57660;DHT22;43485;45.680;15.702;2023-12-20T00:49:22;-0.30;73.20
57660;DHT22;43485;45.680;15.702;2023-12-20T00:51:48;-0.20;73.20
57660;DHT22;43485;45.680;15.702;2023-12-20T00:54:16;-0.30;73.40
57660;DHT22;43485;45.680;15.702;2023-12-20T00:56:42;-0.30;72.70
57660;DHT22;43485;45.680;15.702;2023-12-20T00:59:08;-0.20;73.40
57660;DHT22;43485;45.680;15.702;2023-12-20T01:01:34;-0.30;73.40
57660;DHT22;43485;45.680;15.702;2023-12-20T01:04:00;-0.30;73.60
57660;DHT22;43485;45.680;15.702;2023-12-20T01:06:26;-0.40;73.60
57660;DHT22;43485;45.680;15.702;2023-12-20T01:08:52;-0.40;73.50
57660;DHT22;43485;45.680;15.702;2023-12-20T01:11:18;-0.40;73.40
57660;DHT22;43485;45.680;15.702;2023-12-20T01:13:44;-0.50;73.20
57660;DHT22;43485;45.680;15.702;2023-12-20T01:16:11;-0.50;73.20
57660;DHT22;43485;45.680;15.702;2023-12-20T01:18:37;-0.60;73.00
57660;DHT22;43485;45.680;15.702;2023-12-20T01:21:04;-0.60;73.20
57660;DHT22;43485;45.680;15.702;2023-12-20T01:23:31;-0.60;72.60
57660;DHT22;43485;45.680;15.702;2023-12-20T01:25:58;-0.70;73.30
57660;DHT22;43485;45.680;15.702;2023-12-20T01:28:26;-0.70;73.30
57660;DHT22;43485;45.680;15.702;2023-12-20T01:30:52;-0.70;73.40
57660;DHT22;43485;45.680;15.702;2023-12-20T01:33:18;-0.70;73.60
57660;DHT22;43485;45.680;15.702;2023-12-20T01:35:44;-0.80;73.70
57660;DHT22;43485;45.680;15.702;2023-12-20T01:38:10;-0.80;73.80
57660;DHT22;43485;45.680;15.702;2023-12-20T01:40:36;-0.80;74.00
57660;DHT22;43485;45.680;15.702;2023-12-20T01:43:07;-0.90;74.90
57660;DHT22;43485;45.680;15.702;2023-12-20T01:45:34;-0.90;73.90
57660;DHT22;43485;45.680;15.702;2023-12-20T01:48:01;-1.00;73.80
57660;DHT22;43485;45.680;15.702;2023-12-20T01:50:28;-1.00;74.10
57660;DHT22;43485;45.680;15.702;2023-12-20T01:52:56;-1.00;74.40
57660;DHT22;43485;45.680;15.702;2023-12-20T01:55:24;-1.00;74.10
57660;DHT22;43485;45.680;15.702;2023-12-20T01:57:51;-1.00;74.20
57660;DHT22;43485;45.680;15.702;2023-12-20T02:00:18;-1.00;74.20
57660;DHT22;43485;45.680;15.702;2023-12-20T02:02:48;-1.00;74.10
57660;DHT22;43485;45.680;15.702;2023-12-20T02:05:16;-1.00;73.90
57660;DHT22;43485;45.680;15.702;2023-12-20T02:07:42;-1.00;73.90
57660;DHT22;43485;45.680;15.702;2023-12-20T02:10:09;-1.00;73.70
57660;DHT22;43485;45.680;15.702;2023-12-20T02:12:35;-1.00;73.60
57660;DHT22;43485;45.680;15.702;2023-12-20T02:15:01;-1.00;73.40
57660;DHT22;43485;45.680;15.702;2023-12-20T02:17:28;-1.00;73.30
57660;DHT22;43485;45.680;15.702;2023-12-20T02:19:55;-1.00;73.00
57660;DHT22;43485;45.680;15.702;2023-12-20T02:22:21;-1.00;73.10
57660;DHT22;43485;45.680;15.702;2023-12-20T02:24:47;-1.00;73.20
57660;DHT22;43485;45.680;15.702;2023-12-20T02:27:13;-1.00;73.30
57660;DHT22;43485;45.680;15.702;2023-12-20T02:29:41;-1.00;73.20
57660;DHT22;43485;45.680;15.702;2023-12-20T02:32:07;-1.00;73.30
57660;DHT22;43485;45.680;15.702;2023-12-20T02:34:33;-1.00;73.10
57660;DHT22;43485;45.680;15.702;2023-12-20T02:36:59;-1.00;73.20
57660;DHT22;43485;45.680;15.702;2023-12-20T02:39:25;-1.00;73.30
57660;DHT22;43485;45.680;15.702;2023-12-20T02:41:51;-1.00;73.30
57660;DHT22;43485;45.680;15.702;2023-12-20T02:44:17;-1.00;73.20
57660;DHT22;43485;45.680;15.702;2023-12-20T02:46:43;-1.00;73.20
57660;DHT22;43485;45.680;15.702;2023-12-20T02:49:09;-1.00;73.10
57660;DHT22;43485;45.680;15.702;2023-12-20T02:51:35;-1.00;73.00
57660;DHT22;43485;45.680;15.702;2023-12-20T02:54:04;-1.00;73.20
57660;DHT22;43485;45.680;15.702;2023-12-20T02:56:44;-1.00;72.50
57660;DHT22;43485;45.680;15.702;2023-12-20T02:59:10;-1.00;73.00
57660;DHT22;43485;45.680;15.702;2023-12-20T03:04:26;-1.00;72.80
57660;DHT22;43485;45.680;15.702;2023-12-20T03:06:52;-1.00;73.20
57660;DHT22;43485;45.680;15.702;2023-12-20T03:09:18;-1.00;73.20
57660;DHT22;43485;45.680;15.702;2023-12-20T03:11:44;-1.00;73.40
57660;DHT22;43485;45.680;15.702;2023-12-20T03:14:10;-1.00;73.50
57660;DHT22;43485;45.680;15.702;2023-12-20T03:16:36;-1.00;73.60
57660;DHT22;43485;45.680;15.702;2023-12-20T03:19:02;-1.00;73.60
57660;DHT22;43485;45.680;15.702;2023-12-20T03:21:28;-1.00;73.70
57660;DHT22;43485;45.680;15.702;2023-12-20T03:23:54;-1.00;73.80
57660;DHT22;43485;45.680;15.702;2023-12-20T03:26:20;-1.00;74.00
57660;DHT22;43485;45.680;15.702;2023-12-20T03:28:47;-1.00;74.00
57660;DHT22;43485;45.680;15.702;2023-12-20T03:31:14;-1.00;74.00
57660;DHT22;43485;45.680;15.702;2023-12-20T03:33:40;-1.00;74.00
57660;DHT22;43485;45.680;15.702;2023-12-20T03:36:06;-1.00;74.20
57660;DHT22;43485;45.680;15.702;2023-12-20T03:38:32;-1.00;74.10
57660;DHT22;43485;45.680;15.702;2023-12-20T03:40:58;-1.00;73.90
57660;DHT22;43485;45.680;15.702;2023-12-20T03:43:25;-1.00;73.60
57660;DHT22;43485;45.680;15.702;2023-12-20T03:45:51;-1.00;73.60
57660;DHT22;43485;45.680;15.702;2023-12-20T03:48:17;-1.00;73.80
57660;DHT22;43485;45.680;15.702;2023-12-20T03:50:43;-1.10;73.90
57660;DHT22;43485;45.680;15.702;2023-12-20T03:53:09;-1.10;73.80
57660;DHT22;43485;45.680;15.702;2023-12-20T03:55:35;-1.10;73.70
57660;DHT22;43485;45.680;15.702;2023-12-20T03:58:01;-1.20;73.80
57660;DHT22;43485;45.680;15.702;2023-12-20T04:00:27;-1.20;73.90
57660;DHT22;43485;45.680;15.702;2023-12-20T04:02:53;-1.30;73.90
57660;DHT22;43485;45.680;15.702;2023-12-20T04:05:19;-1.20;74.30
57660;DHT22;43485;45.680;15.702;2023-12-20T04:07:45;-1.30;74.30
57660;DHT22;43485;45.680;15.702;2023-12-20T04:10:11;-1.30;74.30
57660;DHT22;43485;45.680;15.702;2023-12-20T04:12:37;-1.30;74.30
57660;DHT22;43485;45.680;15.702;2023-12-20T04:15:04;-1.30;74.30
57660;DHT22;43485;45.680;15.702;2023-12-20T04:17:35;-1.30;74.50
57660;DHT22;43485;45.680;15.702;2023-12-20T04:20:02;-1.30;74.50
57660;DHT22;43485;45.680;15.702;2023-12-20T04:22:28;-1.30;74.60
57660;DHT22;43485;45.680;15.702;2023-12-20T04:24:54;-1.30;74.60
57660;DHT22;43485;45.680;15.702;2023-12-20T04:27:20;-1.30;74.30
57660;DHT22;43485;45.680;15.702;2023-12-20T04:29:46;-1.30;74.20
57660;DHT22;43485;45.680;15.702;2023-12-20T04:32:12;-1.40;74.20
57660;DHT22;43485;45.680;15.702;2023-12-20T04:34:38;-1.40;74.70
57660;DHT22;43485;45.680;15.702;2023-12-20T04:37:04;-1.30;74.90
57660;DHT22;43485;45.680;15.702;2023-12-20T04:39:31;-1.30;74.60
57660;DHT22;43485;45.680;15.702;2023-12-20T04:41:57;-1.30;74.60
57660;DHT22;43485;45.680;15.702;2023-12-20T04:44:23;-1.20;74.60
57660;DHT22;43485;45.680;15.702;2023-12-20T04:46:49;-1.30;74.50
57660;DHT22;43485;45.680;15.702;2023-12-20T04:49:15;-1.30;74.50
57660;DHT22;43485;45.680;15.702;2023-12-20T04:51:41;-1.30;74.70
57660;DHT22;43485;45.680;15.702;2023-12-20T04:54:07;-1.30;74.70
57660;DHT22;43485;45.680;15.702;2023-12-20T04:56:33;-1.30;74.70
57660;DHT22;43485;45.680;15.702;2023-12-20T04:58:59;-1.30;74.60
57660;DHT22;43485;45.680;15.702;2023-12-20T05:01:25;-1.30;74.70
57660;DHT22;43485;45.680;15.702;2023-12-20T05:03:51;-1.30;74.40
57660;DHT22;43485;45.680;15.702;2023-12-20T05:06:17;-1.30;74.20
57660;DHT22;43485;45.680;15.702;2023-12-20T05:08:43;-1.30;74.20
57660;DHT22;43485;45.680;15.702;2023-12-20T05:11:09;-1.30;74.20
57660;DHT22;43485;45.680;15.702;2023-12-20T05:13:35;-1.20;74.00
57660;DHT22;43485;45.680;15.702;2023-12-20T05:16:01;-1.30;74.10
57660;DHT22;43485;45.680;15.702;2023-12-20T05:18:27;-1.30;74.10
57660;DHT22;43485;45.680;15.702;2023-12-20T05:20:53;-1.30;74.20
57660;DHT22;43485;45.680;15.702;2023-12-20T05:23:19;-1.30;74.20
57660;DHT22;43485;45.680;15.702;2023-12-20T05:25:46;-1.40;73.90
57660;DHT22;43485;45.680;15.702;2023-12-20T05:28:12;-1.40;73.90
57660;DHT22;43485;45.680;15.702;2023-12-20T05:30:38;-1.30;74.00
57660;DHT22;43485;45.680;15.702;2023-12-20T05:33:04;-1.30;73.90
57660;DHT22;43485;45.680;15.702;2023-12-20T05:35:30;-1.30;73.80
57660;DHT22;43485;45.680;15.702;2023-12-20T05:37:56;-1.30;73.70
57660;DHT22;43485;45.680;15.702;2023-12-20T05:40:22;-1.30;73.70
57660;DHT22;43485;45.680;15.702;2023-12-20T05:42:48;-1.30;73.90
57660;DHT22;43485;45.680;15.702;2023-12-20T05:45:15;-1.30;74.10
57660;DHT22;43485;45.680;15.702;2023-12-20T05:47:41;-1.40;74.10
57660;DHT22;43485;45.680;15.702;2023-12-20T05:50:07;-1.50;74.10
57660;DHT22;43485;45.680;15.702;2023-12-20T05:52:34;-1.50;74.20
57660;DHT22;43485;45.680;15.702;2023-12-20T05:55:00;-1.50;74.30
57660;DHT22;43485;45.680;15.702;2023-12-20T05:57:45;-1.50;74.20
57660;DHT22;43485;45.680;15.702;2023-12-20T06:00:11;-1.50;74.10
57660;DHT22;43485;45.680;15.702;2023-12-20T06:02:38;-1.60;73.80
57660;DHT22;43485;45.680;15.702;2023-12-20T06:05:23;-1.60;73.70
57660;DHT22;43485;45.680;15.702;2023-12-20T06:07:49;-1.70;73.70
57660;DHT22;43485;45.680;15.702;2023-12-20T06:10:16;-1.70;73.70
57660;DHT22;43485;45.680;15.702;2023-12-20T06:12:42;-1.80;72.80
57660;DHT22;43485;45.680;15.702;2023-12-20T06:15:08;-1.80;73.40
57660;DHT22;43485;45.680;15.702;2023-12-20T06:17:35;-1.80;73.40
57660;DHT22;43485;45.680;15.702;2023-12-20T06:20:01;-1.90;73.50
57660;DHT22;43485;45.680;15.702;2023-12-20T06:22:28;-1.90;73.50
57660;DHT22;43485;45.680;15.702;2023-12-20T06:24:54;-2.00;73.40
57660;DHT22;43485;45.680;15.702;2023-12-20T06:27:20;-1.90;73.50
57660;DHT22;43485;45.680;15.702;2023-12-20T06:29:46;-1.90;73.50
57660;DHT22;43485;45.680;15.702;2023-12-20T06:32:12;-2.00;73.40
57660;DHT22;43485;45.680;15.702;2023-12-20T06:34:38;-2.00;73.50
57660;DHT22;43485;45.680;15.702;2023-12-20T06:37:04;-2.00;73.70
57660;DHT22;43485;45.680;15.702;2023-12-20T06:39:30;-2.00;73.60
57660;DHT22;43485;45.680;15.702;2023-12-20T06:41:57;-2.00;73.50
57660;DHT22;43485;45.680;15.702;2023-12-20T06:44:23;-2.00;73.70
57660;DHT22;43485;45.680;15.702;2023-12-20T06:46:49;-2.00;73.70
57660;DHT22;43485;45.680;15.702;2023-12-20T06:49:15;-2.00;73.80
57660;DHT22;43485;45.680;15.702;2023-12-20T06:51:41;-2.00;74.00
57660;DHT22;43485;45.680;15.702;2023-12-20T06:54:07;-2.10;73.70
57660;DHT22;43485;45.680;15.702;2023-12-20T06:56:33;-2.10;73.90
57660;DHT22;43485;45.680;15.702;2023-12-20T06:58:59;-2.00;73.70
57660;DHT22;43485;45.680;15.702;2023-12-20T07:01:25;-2.00;73.70
57660;DHT22;43485;45.680;15.702;2023-12-20T07:03:51;-2.00;73.70
57660;DHT22;43485;45.680;15.702;2023-12-20T07:06:17;-2.00;73.60
57660;DHT22;43485;45.680;15.702;2023-12-20T07:08:43;-1.90;73.80
57660;DHT22;43485;45.680;15.702;2023-12-20T07:11:09;-1.90;73.60
57660;DHT22;43485;45.680;15.702;2023-12-20T07:13:35;-1.90;73.40
57660;DHT22;43485;45.680;15.702;2023-12-20T07:16:01;-1.90;73.30
57660;DHT22;43485;45.680;15.702;2023-12-20T07:18:27;-1.80;73.20
57660;DHT22;43485;45.680;15.702;2023-12-20T07:20:53;-1.70;73.00
57660;DHT22;43485;45.680;15.702;2023-12-20T07:23:20;-1.80;72.60
57660;DHT22;43485;45.680;15.702;2023-12-20T07:25:46;-1.70;72.80
57660;DHT22;43485;45.680;15.702;2023-12-20T07:28:13;-1.70;72.80
57660;DHT22;43485;45.680;15.702;2023-12-20T07:30:39;-1.70;72.80
57660;DHT22;43485;45.680;15.702;2023-12-20T07:33:05;-1.60;72.80
57660;DHT22;43485;45.680;15.702;2023-12-20T07:35:33;-1.50;72.80
57660;DHT22;43485;45.680;15.702;2023-12-20T07:37:59;-1.50;72.40
57660;DHT22;43485;45.680;15.702;2023-12-20T07:40:25;-1.50;72.30
57660;DHT22;43485;45.680;15.702;2023-12-20T07:42:51;-1.50;72.20
57660;DHT22;43485;45.680;15.702;2023-12-20T07:45:17;-1.40;72.20
57660;DHT22;43485;45.680;15.702;2023-12-20T07:47:43;-1.30;72.30
57660;DHT22;43485;45.680;15.702;2023-12-20T07:50:09;-1.20;72.00
57660;DHT22;43485;45.680;15.702;2023-12-20T07:52:35;-1.00;71.60
57660;DHT22;43485;45.680;15.702;2023-12-20T07:55:01;-0.90;71.40
57660;DHT22;43485;45.680;15.702;2023-12-20T08:00:13;-0.60;70.90
57660;DHT22;43485;45.680;15.702;2023-12-20T08:02:39;-0.60;70.20
57660;DHT22;43485;45.680;15.702;2023-12-20T08:05:05;-0.60;71.00
57660;DHT22;43485;45.680;15.702;2023-12-20T08:07:31;-0.60;70.70
57660;DHT22;43485;45.680;15.702;2023-12-20T08:09:57;-0.60;71.30
57660;DHT22;43485;45.680;15.702;2023-12-20T08:12:23;-0.50;71.60
57660;DHT22;43485;45.680;15.702;2023-12-20T08:14:53;-0.50;71.80
57660;DHT22;43485;45.680;15.702;2023-12-20T08:17:19;-0.50;71.90
57660;DHT22;43485;45.680;15.702;2023-12-20T08:19:46;-0.40;72.10
57660;DHT22;43485;45.680;15.702;2023-12-20T08:22:12;-0.30;72.20
57660;DHT22;43485;45.680;15.702;2023-12-20T08:24:38;-0.30;72.10
57660;DHT22;43485;45.680;15.702;2023-12-20T08:27:04;-0.20;71.90
57660;DHT22;43485;45.680;15.702;2023-12-20T08:29:30;-0.10;71.90
57660;DHT22;43485;45.680;15.702;2023-12-20T08:31:57;0.00;72.10
57660;DHT22;43485;45.680;15.702;2023-12-20T08:34:24;0.10;71.70
57660;DHT22;43485;45.680;15.702;2023-12-20T08:36:50;0.10;72.30
57660;DHT22;43485;45.680;15.702;2023-12-20T08:39:17;0.20;72.10
57660;DHT22;43485;45.680;15.702;2023-12-20T08:41:43;0.30;71.90
57660;DHT22;43485;45.680;15.702;2023-12-20T08:44:09;0.40;71.70
57660;DHT22;43485;45.680;15.702;2023-12-20T08:46:35;0.50;71.70
57660;DHT22;43485;45.680;15.702;2023-12-20T08:49:02;0.60;71.50
57660;DHT22;43485;45.680;15.702;2023-12-20T08:51:28;0.70;71.90
57660;DHT22;43485;45.680;15.702;2023-12-20T08:53:54;0.80;72.60
57660;DHT22;43485;45.680;15.702;2023-12-20T08:56:20;0.90;72.80
57660;DHT22;43485;45.680;15.702;2023-12-20T08:58:46;1.00;72.80
57660;DHT22;43485;45.680;15.702;2023-12-20T09:01:13;1.20;73.10
57660;DHT22;43485;45.680;15.702;2023-12-20T09:03:40;2.20;71.10
57660;DHT22;43485;45.680;15.702;2023-12-20T09:06:06;4.30;66.70
57660;DHT22;43485;45.680;15.702;2023-12-20T09:08:32;5.80;59.80
57660;DHT22;43485;45.680;15.702;2023-12-20T09:10:59;5.80;59.40
57660;DHT22;43485;45.680;15.702;2023-12-20T09:13:26;6.10;58.90
57660;DHT22;43485;45.680;15.702;2023-12-20T09:15:57;6.30;57.50
57660;DHT22;43485;45.680;15.702;2023-12-20T09:18:23;6.50;57.20
57660;DHT22;43485;45.680;15.702;2023-12-20T09:20:50;7.30;56.70
57660;DHT22;43485;45.680;15.702;2023-12-20T09:23:16;7.70;54.90
57660;DHT22;43485;45.680;15.702;2023-12-20T09:25:43;7.60;55.30
57660;DHT22;43485;45.680;15.702;2023-12-20T09:28:09;7.20;56.60
57660;DHT22;43485;45.680;15.702;2023-12-20T09:30:35;6.70;58.50
57660;DHT22;43485;45.680;15.702;2023-12-20T09:33:05;7.20;59.40
57660;DHT22;43485;45.680;15.702;2023-12-20T09:35:32;7.40;57.00
57660;DHT22;43485;45.680;15.702;2023-12-20T09:37:58;7.30;58.40
57660;DHT22;43485;45.680;15.702;2023-12-20T09:40:26;7.50;58.50
57660;DHT22;43485;45.680;15.702;2023-12-20T09:43:11;7.90;57.90
57660;DHT22;43485;45.680;15.702;2023-12-20T09:46:00;8.90;54.90
57660;DHT22;43485;45.680;15.702;2023-12-20T09:48:27;8.80;53.30
57660;DHT22;43485;45.680;15.702;2023-12-20T09:50:55;8.70;54.80
57660;DHT22;43485;45.680;15.702;2023-12-20T09:53:22;8.50;55.80
57660;DHT22;43485;45.680;15.702;2023-12-20T09:58:41;9.10;53.70
57660;DHT22;43485;45.680;15.702;2023-12-20T10:01:08;8.70;54.80
57660;DHT22;43485;45.680;15.702;2023-12-20T10:03:34;9.20;54.70
57660;DHT22;43485;45.680;15.702;2023-12-20T10:06:01;10.00;53.50
57660;DHT22;43485;45.680;15.702;2023-12-20T10:08:27;10.80;50.70
57660;DHT22;43485;45.680;15.702;2023-12-20T10:10:55;11.10;50.20
57660;DHT22;43485;45.680;15.702;2023-12-20T10:13:23;10.40;51.00
57660;DHT22;43485;45.680;15.702;2023-12-20T10:15:49;10.70;52.00
57660;DHT22;43485;45.680;15.702;2023-12-20T10:18:16;12.30;47.30
57660;DHT22;43485;45.680;15.702;2023-12-20T10:20:42;12.30;46.30
57660;DHT22;43485;45.680;15.702;2023-12-20T10:23:08;11.70;47.90
57660;DHT22;43485;45.680;15.702;2023-12-20T10:25:35;11.50;49.50
57660;DHT22;43485;45.680;15.702;2023-12-20T10:28:20;12.10;47.70
57660;DHT22;43485;45.680;15.702;2023-12-20T10:30:48;11.40;49.00
57660;DHT22;43485;45.680;15.702;2023-12-20T10:36:07;10.90;50.80
57660;DHT22;43485;45.680;15.702;2023-12-20T10:38:35;11.20;50.50
57660;DHT22;43485;45.680;15.702;2023-12-20T10:41:05;11.70;49.80
57660;DHT22;43485;45.680;15.702;2023-12-20T10:43:33;11.90;49.50
57660;DHT22;43485;45.680;15.702;2023-12-20T10:45:59;12.70;47.70
57660;DHT22;43485;45.680;15.702;2023-12-20T10:48:26;12.60;45.90
57660;DHT22;43485;45.680;15.702;2023-12-20T10:50:56;12.30;44.50
57660;DHT22;43485;45.680;15.702;2023-12-20T10:53:23;13.20;43.10
57660;DHT22;43485;45.680;15.702;2023-12-20T10:58:38;14.30;38.30
57660;DHT22;43485;45.680;15.702;2023-12-20T11:01:09;14.10;37.80
57660;DHT22;43485;45.680;15.702;2023-12-20T11:03:36;14.70;37.30
57660;DHT22;43485;45.680;15.702;2023-12-20T11:06:37;16.30;34.20
57660;DHT22;43485;45.680;15.702;2023-12-20T11:09:26;16.90;32.50
57660;DHT22;43485;45.680;15.702;2023-12-20T11:15:03;14.90;35.90
57660;DHT22;43485;45.680;15.702;2023-12-20T11:17:31;14.60;36.60
57660;DHT22;43485;45.680;15.702;2023-12-20T11:22:25;14.10;39.20
57660;DHT22;43485;45.680;15.702;2023-12-20T11:25:10;13.70;40.00
57660;DHT22;43485;45.680;15.702;2023-12-20T11:27:41;13.10;41.00
57660;DHT22;43485;45.680;15.702;2023-12-20T11:30:08;12.80;42.10
57660;DHT22;43485;45.680;15.702;2023-12-20T11:32:36;12.80;42.20
57660;DHT22;43485;45.680;15.702;2023-12-20T11:35:21;12.70;42.50
57660;DHT22;43485;45.680;15.702;2023-12-20T11:37:49;12.00;44.20
57660;DHT22;43485;45.680;15.702;2023-12-20T11:40:17;11.40;45.60
57660;DHT22;43485;45.680;15.702;2023-12-20T11:42:45;11.10;46.20
57660;DHT22;43485;45.680;15.702;2023-12-20T11:45:19;10.90;47.40
57660;DHT22;43485;45.680;15.702;2023-12-20T11:47:48;10.70;48.00
57660;DHT22;43485;45.680;15.702;2023-12-20T11:50:33;10.70;48.40
57660;DHT22;43485;45.680;15.702;2023-12-20T11:52:59;10.70;48.50
57660;DHT22;43485;45.680;15.702;2023-12-20T11:55:25;10.80;48.50
57660;DHT22;43485;45.680;15.702;2023-12-20T11:57:51;11.30;47.50
57660;DHT22;43485;45.680;15.702;2023-12-20T12:00:18;12.60;44.20
57660;DHT22;43485;45.680;15.702;2023-12-20T12:05:40;11.40;45.30
57660;DHT22;43485;45.680;15.702;2023-12-20T12:08:06;10.90;47.20
57660;DHT22;43485;45.680;15.702;2023-12-20T12:10:33;10.60;48.10
57660;DHT22;43485;45.680;15.702;2023-12-20T12:12:59;10.50;48.30
57660;DHT22;43485;45.680;15.702;2023-12-20T12:15:26;10.20;48.20
57660;DHT22;43485;45.680;15.702;2023-12-20T12:18:11;10.10;48.30
57660;DHT22;43485;45.680;15.702;2023-12-20T12:20:40;10.00;49.00
57660;DHT22;43485;45.680;15.702;2023-12-20T12:23:06;9.90;48.80
57660;DHT22;43485;45.680;15.702;2023-12-20T12:25:35;9.80;49.60
57660;DHT22;43485;45.680;15.702;2023-12-20T12:28:02;9.70;49.70
57660;DHT22;43485;45.680;15.702;2023-12-20T12:30:29;9.60;49.80
57660;DHT22;43485;45.680;15.702;2023-12-20T12:32:56;9.50;50.50
57660;DHT22;43485;45.680;15.702;2023-12-20T12:35:23;9.40;50.10
57660;DHT22;43485;45.680;15.702;2023-12-20T12:37:49;9.30;51.10
57660;DHT22;43485;45.680;15.702;2023-12-20T12:40:16;9.20;51.30
57660;DHT22;43485;45.680;15.702;2023-12-20T12:42:44;9.20;51.50
57660;DHT22;43485;45.680;15.702;2023-12-20T12:45:11;9.10;51.90
57660;DHT22;43485;45.680;15.702;2023-12-20T12:47:37;9.10;51.90
57660;DHT22;43485;45.680;15.702;2023-12-20T12:50:04;9.00;51.80
57660;DHT22;43485;45.680;15.702;2023-12-20T12:52:31;9.00;51.80
57660;DHT22;43485;45.680;15.702;2023-12-20T12:54:57;8.90;52.50
57660;DHT22;43485;45.680;15.702;2023-12-20T12:57:23;8.90;52.90
57660;DHT22;43485;45.680;15.702;2023-12-20T12:59:50;8.80;53.00
57660;DHT22;43485;45.680;15.702;2023-12-20T13:02:16;8.70;53.00
57660;DHT22;43485;45.680;15.702;2023-12-20T13:04:42;8.70;53.80
57660;DHT22;43485;45.680;15.702;2023-12-20T13:07:09;8.70;53.50
57660;DHT22;43485;45.680;15.702;2023-12-20T13:09:54;8.60;53.20
57660;DHT22;43485;45.680;15.702;2023-12-20T13:12:20;8.60;54.00
57660;DHT22;43485;45.680;15.702;2023-12-20T13:14:47;8.60;54.10
57660;DHT22;43485;45.680;15.702;2023-12-20T13:17:13;8.60;54.30
57660;DHT22;43485;45.680;15.702;2023-12-20T13:19:39;8.60;54.20
57660;DHT22;43485;45.680;15.702;2023-12-20T13:22:05;8.60;54.40
57660;DHT22;43485;45.680;15.702;2023-12-20T13:24:31;8.50;54.50
57660;DHT22;43485;45.680;15.702;2023-12-20T13:26:58;8.50;54.50
57660;DHT22;43485;45.680;15.702;2023-12-20T13:29:24;8.50;54.70
57660;DHT22;43485;45.680;15.702;2023-12-20T13:31:52;8.50;54.90
57660;DHT22;43485;45.680;15.702;2023-12-20T13:34:19;8.50;55.00
57660;DHT22;43485;45.680;15.702;2023-12-20T13:36:45;8.40;55.10
57660;DHT22;43485;45.680;15.702;2023-12-20T13:39:13;8.40;55.10
57660;DHT22;43485;45.680;15.702;2023-12-20T13:41:39;8.30;55.10
57660;DHT22;43485;45.680;15.702;2023-12-20T13:44:05;8.20;55.40
57660;DHT22;43485;45.680;15.702;2023-12-20T13:46:32;8.20;54.90
57660;DHT22;43485;45.680;15.702;2023-12-20T13:48:58;8.10;55.50
57660;DHT22;43485;45.680;15.702;2023-12-20T13:51:25;8.10;55.70
57660;DHT22;43485;45.680;15.702;2023-12-20T13:53:51;8.00;55.80
57660;DHT22;43485;45.680;15.702;2023-12-20T13:56:17;7.90;56.10
57660;DHT22;43485;45.680;15.702;2023-12-20T13:58:45;7.90;56.30
57660;DHT22;43485;45.680;15.702;2023-12-20T14:01:12;7.80;56.40
57660;DHT22;43485;45.680;15.702;2023-12-20T14:03:39;7.70;56.60
57660;DHT22;43485;45.680;15.702;2023-12-20T14:06:05;7.70;56.70
57660;DHT22;43485;45.680;15.702;2023-12-20T14:08:31;7.60;55.80
57660;DHT22;43485;45.680;15.702;2023-12-20T14:10:57;7.60;56.70
57660;DHT22;43485;45.680;15.702;2023-12-20T14:13:23;7.50;57.10
57660;DHT22;43485;45.680;15.702;2023-12-20T14:15:49;7.40;57.20
57660;DHT22;43485;45.680;15.702;2023-12-20T14:18:15;7.30;57.50
57660;DHT22;43485;45.680;15.702;2023-12-20T14:20:42;7.20;57.70
57660;DHT22;43485;45.680;15.702;2023-12-20T14:23:08;7.20;57.90
57660;DHT22;43485;45.680;15.702;2023-12-20T14:25:41;7.20;58.00
57660;DHT22;43485;45.680;15.702;2023-12-20T14:28:07;7.10;58.10
57660;DHT22;43485;45.680;15.702;2023-12-20T14:30:33;7.10;58.30
57660;DHT22;43485;45.680;15.702;2023-12-20T14:33:00;7.00;58.50
57660;DHT22;43485;45.680;15.702;2023-12-20T14:35:26;6.90;58.80
57660;DHT22;43485;45.680;15.702;2023-12-20T14:37:52;6.90;59.00
57660;DHT22;43485;45.680;15.702;2023-12-20T14:40:19;6.80;59.40
57660;DHT22;43485;45.680;15.702;2023-12-20T14:42:45;6.80;59.60
57660;DHT22;43485;45.680;15.702;2023-12-20T14:45:11;6.80;59.60
57660;DHT22;43485;45.680;15.702;2023-12-20T14:47:39;6.70;59.00
57660;DHT22;43485;45.680;15.702;2023-12-20T14:50:06;6.70;59.90
57660;DHT22;43485;45.680;15.702;2023-12-20T14:52:33;6.60;59.90
57660;DHT22;43485;45.680;15.702;2023-12-20T14:55:00;6.60;59.80
57660;DHT22;43485;45.680;15.702;2023-12-20T14:57:29;6.50;60.60
57660;DHT22;43485;45.680;15.702;2023-12-20T14:59:56;6.50;60.70
57660;DHT22;43485;45.680;15.702;2023-12-20T15:02:22;6.40;60.60
57660;DHT22;43485;45.680;15.702;2023-12-20T15:04:48;6.40;60.60
57660;DHT22;43485;45.680;15.702;2023-12-20T15:07:16;6.40;60.80
57660;DHT22;43485;45.680;15.702;2023-12-20T15:09:42;6.40;60.90
57660;DHT22;43485;45.680;15.702;2023-12-20T15:12:11;6.30;60.80
57660;DHT22;43485;45.680;15.702;2023-12-20T15:14:38;6.30;60.80
57660;DHT22;43485;45.680;15.702;2023-12-20T15:17:04;6.30;61.10
57660;DHT22;43485;45.680;15.702;2023-12-20T15:19:31;6.20;61.40
57660;DHT22;43485;45.680;15.702;2023-12-20T15:21:57;6.20;60.60
57660;DHT22;43485;45.680;15.702;2023-12-20T15:24:25;6.20;61.30
57660;DHT22;43485;45.680;15.702;2023-12-20T15:27:10;6.20;61.30
57660;DHT22;43485;45.680;15.702;2023-12-20T15:29:36;6.10;62.10
57660;DHT22;43485;45.680;15.702;2023-12-20T15:32:02;6.10;62.00
57660;DHT22;43485;45.680;15.702;2023-12-20T15:34:29;6.10;61.40
57660;DHT22;43485;45.680;15.702;2023-12-20T15:36:56;6.10;63.20
57660;DHT22;43485;45.680;15.702;2023-12-20T15:39:22;6.10;62.10
57660;DHT22;43485;45.680;15.702;2023-12-20T15:41:48;6.00;61.40